createdAt,value
2022-09-12T00:04:42.160Z,8.70
2022-09-12T00:09:43.828Z,8.71
2022-09-12T00:14:45.502Z,8.71
2022-09-12T00:19:47.992Z,8.72
2022-09-12T00:24:49.766Z,8.74
2022-09-12T00:29:51.846Z,8.75
2022-09-12T00:34:53.628Z,8.75
2022-09-12T00:39:55.739Z,8.74
2022-09-12T00:44:57.690Z,8.71
2022-09-12T00:50:19.635Z,8.69
2022-09-12T00:55:21.405Z,8.69
2022-09-12T01:00:26.928Z,8.67
2022-09-12T01:05:30.896Z,8.66
2022-09-12T01:10:37.375Z,8.66
2022-09-12T01:15:40.317Z,8.63
2022-09-12T01:21:03.351Z,8.59
2022-09-12T01:26:27.037Z,8.56
2022-09-12T01:31:40.689Z,8.54
2022-09-12T01:36:54.752Z,8.53
2022-09-12T01:42:02.670Z,8.53
2022-09-12T01:47:19.295Z,8.54
2022-09-12T01:52:28.339Z,8.54
2022-09-12T01:57:42.809Z,8.51
2022-09-12T02:02:55.132Z,8.48
2022-09-12T02:08:30.697Z,8.47
2022-09-12T02:13:42.821Z,8.46
2022-09-12T02:18:50.532Z,8.48
2022-09-12T02:23:59.063Z,8.48
2022-09-12T02:29:01.347Z,8.49
2022-09-12T02:34:52.069Z,8.49
2022-09-12T02:39:56.874Z,8.50
2022-09-12T02:44:58.895Z,8.53
2022-09-12T02:50:01.486Z,8.59
2022-09-12T02:55:06.032Z,8.66
2022-09-12T03:00:09.017Z,8.72
2022-09-12T03:05:30.259Z,8.79
2022-09-12T03:10:50.567Z,8.88
2022-09-12T03:16:04.485Z,8.96
2022-09-12T03:21:33.132Z,9.04
2022-09-12T03:26:39.309Z,9.10
2022-09-12T03:31:49.827Z,9.15
2022-09-12T03:36:54.978Z,9.18
2022-09-12T03:41:57.737Z,9.17
2022-09-12T03:46:59.718Z,9.15
2022-09-12T03:52:01.902Z,9.13
2022-09-12T03:57:04.084Z,9.12
2022-09-12T04:02:06.518Z,9.13
2022-09-12T04:07:09.887Z,9.13
2022-09-12T04:12:13.504Z,9.13
2022-09-12T04:17:15.790Z,9.15
2022-09-12T04:22:17.564Z,9.18
2022-09-12T04:27:19.748Z,9.24
2022-09-12T04:32:22.038Z,9.34
2022-09-12T04:37:24.225Z,9.45
2022-09-12T04:42:26.304Z,9.57
2022-09-12T04:47:28.387Z,9.70
2022-09-12T04:52:30.462Z,9.85
2022-09-12T04:57:32.236Z,9.99
2022-09-12T05:02:34.486Z,10.17
2022-09-12T05:07:36.400Z,10.39
2022-09-12T05:12:38.789Z,10.64
2022-09-12T05:17:40.563Z,10.88
2022-09-12T05:22:42.546Z,11.05
2022-09-12T05:27:47.440Z,11.18
2022-09-12T05:32:52.233Z,11.31
2022-09-12T05:37:54.007Z,11.39
2022-09-12T05:42:57.215Z,11.44
2022-09-12T05:47:59.195Z,11.51
2022-09-12T05:53:01.379Z,11.60
2022-09-12T05:58:03.257Z,11.66
2022-09-12T06:03:04.928Z,11.75
2022-09-12T06:08:06.701Z,11.88
2022-09-12T06:13:08.476Z,12.03
2022-09-12T06:18:10.249Z,12.18
2022-09-12T06:23:12.330Z,12.36
2022-09-12T06:28:14.514Z,12.53
2022-09-12T06:33:17.214Z,12.73
2022-09-12T06:38:19.395Z,12.98
2022-09-12T06:43:21.479Z,13.29
2022-09-12T06:48:23.661Z,13.54
2022-09-12T06:53:26.971Z,13.75
2022-09-12T06:58:30.180Z,14.00
2022-09-12T07:03:33.251Z,14.38
2022-09-12T07:08:37.009Z,14.84
2022-09-12T07:13:40.929Z,15.32
2022-09-12T07:18:43.630Z,15.54
2022-09-12T07:23:46.949Z,15.77
2022-09-12T07:29:07.954Z,15.99
2022-09-12T07:34:14.957Z,16.44
2022-09-12T07:39:19.776Z,16.76
2022-09-12T07:44:22.504Z,16.81
2022-09-12T07:49:24.274Z,16.74
2022-09-12T07:54:26.353Z,16.66
2022-09-12T07:59:48.879Z,16.51
2022-09-12T08:04:50.938Z,16.37
2022-09-12T08:09:53.386Z,16.31
2022-09-12T08:14:55.160Z,16.28
2022-09-12T08:19:56.989Z,16.23
2022-09-12T08:24:58.814Z,16.22
2022-09-12T08:30:00.585Z,16.06
2022-09-12T08:35:03.280Z,16.11
2022-09-12T08:40:08.918Z,16.53
2022-09-12T08:45:10.723Z,16.90
2022-09-12T08:50:17.278Z,16.99
2022-09-12T08:55:25.130Z,17.04
2022-09-12T09:00:42.566Z,17.16
2022-09-12T09:06:02.602Z,17.25
2022-09-12T09:11:25.966Z,17.21
2022-09-12T09:16:32.613Z,17.40
2022-09-12T09:21:40.659Z,17.76
2022-09-12T09:26:45.709Z,18.13
2022-09-12T09:31:52.874Z,19.49
2022-09-12T09:37:18.952Z,21.32
2022-09-12T09:42:44.073Z,21.21
2022-09-12T09:47:52.812Z,20.53
2022-09-12T09:52:58.893Z,19.84
2022-09-12T09:58:00.664Z,19.73
2022-09-12T10:03:38.481Z,19.67
2022-09-12T10:08:41.179Z,19.38
2022-09-12T10:13:56.571Z,19.22
2022-09-12T10:19:03.570Z,19.08
2022-09-12T10:24:14.459Z,19.03
2022-09-12T10:29:25.663Z,19.07
2022-09-12T10:34:35.923Z,19.15
2022-09-12T10:39:38.627Z,19.25
2022-09-12T10:44:54.056Z,19.33
2022-09-12T10:50:22.870Z,19.32
2022-09-12T10:55:35.457Z,19.12
2022-09-12T11:00:47.059Z,19.06
2022-09-12T11:05:52.263Z,19.22
2022-09-12T11:10:59.918Z,19.45
2022-09-12T11:16:10.857Z,19.62
2022-09-12T11:21:46.581Z,19.75
2022-09-12T11:27:00.659Z,19.82
2022-09-12T11:32:18.085Z,19.75
2022-09-12T11:37:51.191Z,19.99
2022-09-12T11:42:55.439Z,20.59
2022-09-12T11:48:03.966Z,20.78
2022-09-12T11:53:20.275Z,20.22
2022-09-12T11:58:26.563Z,19.60
2022-09-12T12:03:37.907Z,19.22
2022-09-12T12:08:43.006Z,19.03
2022-09-12T12:13:55.442Z,19.04
2022-09-12T12:19:02.117Z,19.00
2022-09-12T12:24:07.752Z,18.91
2022-09-12T12:29:21.747Z,18.65
2022-09-12T12:34:44.203Z,18.28
2022-09-12T12:39:50.464Z,18.18
2022-09-12T12:44:52.664Z,18.35
2022-09-12T12:50:01.407Z,18.67
2022-09-12T12:55:05.532Z,19.09
2022-09-12T13:00:27.786Z,19.11
2022-09-12T13:05:46.670Z,18.84
2022-09-12T13:10:57.449Z,18.47
2022-09-12T13:15:59.373Z,18.11
2022-09-12T13:21:19.428Z,17.83
2022-09-12T13:26:27.962Z,17.68
2022-09-12T13:31:30.199Z,17.77
2022-09-12T13:36:55.997Z,17.99
2022-09-12T13:42:47.421Z,18.41
2022-09-12T13:47:58.739Z,18.91
2022-09-12T13:53:07.623Z,18.97
2022-09-12T13:58:21.234Z,18.81
2022-09-12T14:03:45.943Z,18.79
2022-09-12T14:08:48.383Z,18.69
2022-09-12T14:13:52.239Z,18.69
2022-09-12T14:18:54.523Z,18.51
2022-09-12T14:23:57.325Z,18.25
2022-09-12T14:29:01.245Z,18.05
2022-09-12T14:34:15.213Z,17.93
2022-09-12T14:39:21.483Z,17.94
2022-09-12T14:44:26.125Z,18.00
2022-09-12T14:49:29.353Z,17.92
2022-09-12T14:54:38.589Z,17.74
2022-09-12T14:59:41.588Z,17.59
2022-09-12T15:04:54.903Z,17.52
2022-09-12T15:10:02.295Z,17.51
2022-09-12T15:15:14.882Z,17.48
2022-09-12T15:20:17.252Z,17.34
2022-09-12T15:25:20.152Z,17.19
2022-09-12T15:30:22.030Z,17.05
2022-09-12T15:35:33.329Z,16.92
2022-09-12T15:40:35.409Z,16.78
2022-09-12T15:45:39.230Z,16.67
2022-09-12T15:50:41.931Z,16.52
2022-09-12T15:55:44.723Z,16.38
2022-09-12T16:00:47.301Z,16.22
2022-09-12T16:05:50.618Z,16.00
2022-09-12T16:10:59.180Z,15.79
2022-09-12T16:16:01.809Z,15.61
2022-09-12T16:21:04.363Z,15.43
2022-09-12T16:26:06.847Z,15.26
2022-09-12T16:31:12.785Z,15.12
2022-09-12T16:36:17.757Z,14.97
2022-09-12T16:41:24.416Z,14.79
2022-09-12T16:46:28.547Z,14.60
2022-09-12T16:51:33.425Z,14.38
2022-09-12T16:56:35.202Z,14.15
2022-09-12T17:01:38.172Z,13.93
2022-09-12T17:06:41.411Z,13.69
2022-09-12T17:11:44.894Z,13.46
2022-09-12T17:16:51.457Z,13.22
2022-09-12T17:21:54.123Z,13.02
2022-09-12T17:26:56.917Z,12.80
2022-09-12T17:31:59.278Z,12.58
2022-09-12T17:37:02.011Z,12.36
2022-09-12T17:42:05.369Z,12.15
2022-09-12T17:47:07.895Z,11.97
2022-09-12T17:52:10.494Z,11.77
2022-09-12T17:57:14.005Z,11.58
2022-09-12T18:02:18.899Z,11.39
2022-09-12T18:07:21.964Z,11.18
2022-09-12T18:12:28.721Z,11.01
2022-09-12T18:17:32.993Z,10.86
2022-09-12T18:22:35.317Z,10.75
2022-09-12T18:27:37.655Z,10.72
2022-09-12T18:32:41.327Z,10.74
2022-09-12T18:37:44.694Z,10.77
2022-09-12T18:42:52.718Z,10.80
2022-09-12T18:48:00.740Z,10.79
2022-09-12T18:53:03.129Z,10.72
2022-09-12T18:58:05.724Z,10.62
2022-09-12T19:03:10.038Z,10.49
2022-09-12T19:08:12.120Z,10.35
2022-09-12T19:13:14.325Z,10.20
2022-09-12T19:18:19.775Z,10.05
2022-09-12T19:23:24.053Z,9.91
2022-09-12T19:28:28.126Z,9.77
2022-09-12T19:33:30.313Z,9.62
2022-09-12T19:38:32.702Z,9.48
2022-09-12T19:43:34.687Z,9.35
2022-09-12T19:48:36.865Z,9.23
2022-09-12T19:53:39.360Z,9.07
2022-09-12T19:58:44.310Z,8.92
2022-09-12T20:03:48.620Z,8.81
2022-09-12T20:08:51.346Z,8.73
2022-09-12T20:13:54.031Z,8.67
2022-09-12T20:19:08.713Z,8.59
2022-09-12T20:24:13.482Z,8.51
2022-09-12T20:29:17.999Z,8.47
2022-09-12T20:34:21.095Z,8.41
2022-09-12T20:39:23.286Z,8.34
2022-09-12T20:44:25.772Z,8.27
2022-09-12T20:49:28.058Z,8.19
2022-09-12T20:54:31.782Z,8.10
2022-09-12T20:59:34.794Z,8.03
2022-09-12T21:04:36.684Z,7.99
2022-09-12T21:09:39.341Z,7.92
2022-09-12T21:14:41.131Z,7.82
2022-09-12T21:19:43.001Z,7.72
2022-09-12T21:24:44.877Z,7.66
2022-09-12T21:29:46.652Z,7.60
2022-09-12T21:34:48.939Z,7.51
2022-09-12T21:39:50.742Z,7.46
2022-09-12T21:44:53.044Z,7.45
2022-09-12T21:49:55.083Z,7.46
2022-09-12T21:54:57.058Z,7.47
2022-09-12T21:59:59.343Z,7.46
2022-09-12T22:05:01.427Z,7.43
2022-09-12T22:10:05.045Z,7.40
2022-09-12T22:15:29.221Z,7.37
2022-09-12T22:20:29.385Z,7.34
2022-09-12T22:25:31.154Z,7.30
2022-09-12T22:30:33.747Z,7.25
2022-09-12T22:35:36.033Z,7.19
2022-09-12T22:40:38.015Z,7.19
2022-09-12T22:45:42.865Z,7.20
2022-09-12T22:50:45.564Z,7.17
2022-09-12T22:55:47.637Z,7.08
2022-09-12T23:00:50.208Z,6.99
2022-09-12T23:05:53.541Z,6.91
2022-09-12T23:11:09.038Z,6.84
2022-09-12T23:16:24.792Z,6.76
2022-09-12T23:21:26.920Z,6.72
2022-09-12T23:26:29.513Z,6.70
2022-09-12T23:31:32.777Z,6.67
2022-09-12T23:36:34.803Z,6.69
2022-09-12T23:41:37.713Z,6.72
2022-09-12T23:46:40.092Z,6.77
2022-09-12T23:51:41.866Z,6.84
2022-09-12T23:56:43.640Z,6.93
